Time;durP1;ratioP1;P1;durP2;ratioP2;P2;SDS_P1;SDS_P2;PMS_P1;PMS_P2;Temp;Humidity;BMP_temperature;BMP_pressure;BME280_temperature;BME280_humidity;BME280_pressure;Samples;Min_cycle;Max_cycle;Signal;HPM_P1;HPM_P2
2024/03/25 00:01:37;;;;;;;;;;;;;;;13.97;51.57;97946.91;5052264;28;19940;-82
2024/03/25 00:04:02;;;;;;;;;;;;;;;13.96;51.34;97928.59;5031864;28;19928;-82
2024/03/25 00:06:28;;;;;;;;;;;;;;;13.99;50.97;97922.78;5037420;28;19917;-82
2024/03/25 00:08:53;;;;;;;;;;;;;;;14.02;51.25;97916.22;5043080;28;19919;-81
2024/03/25 00:11:18;;;;;;;;;;;;;;;14.08;51.24;97936.47;5033737;28;20373;-81
2024/03/25 00:13:43;;;;;;;;;;;;;;;14.12;50.31;97950.88;5032541;28;19913;-82
2024/03/25 00:16:09;;;;;;;;;;;;;;;14.15;50.34;97951.22;5032084;28;20309;-81
2024/03/25 00:18:34;;;;;;;;;;;;;;;14.16;50.60;97944.88;5031991;28;19913;-81
2024/03/25 00:20:59;;;;;;;;;;;;;;;14.17;50.97;97943.03;5030741;28;19909;-81
2024/03/25 00:23:24;;;;;;;;;;;;;;;14.20;50.92;97939.91;5031387;28;19913;-81
2024/03/25 00:25:50;;;;;;;;;;;;;;;14.22;50.87;97922.69;5030632;28;20012;-82
2024/03/25 00:28:15;;;;;;;;;;;;;;;14.25;50.59;97921.41;5032244;28;20305;-81
2024/03/25 00:30:40;;;;;;;;;;;;;;;14.29;49.83;97917.22;5032213;28;19949;-81
2024/03/25 00:33:09;;;;;;;;;;;;;;;14.26;49.63;97918.50;5030824;28;20402;-82
2024/03/25 00:35:35;;;;;;;;;;;;;;;14.19;50.78;97911.75;5030449;28;20318;-80
2024/03/25 00:38:00;;;;;;;;;;;;;;;14.18;50.89;97904.81;5030793;28;19920;-82
2024/03/25 00:40:26;;;;;;;;;;;;;;;14.19;51.21;97893.16;5031916;28;19917;-82
2024/03/25 00:42:52;;;;;;;;;;;;;;;14.17;51.30;97887.28;5032018;28;19913;-82
2024/03/25 00:45:17;;;;;;;;;;;;;;;14.17;51.53;97888.09;5031520;28;19913;-82
2024/03/25 00:47:42;;;;;;;;;;;;;;;14.15;51.51;97881.41;5030780;28;20012;-81
2024/03/25 00:50:09;;;;;;;;;;;;;;;14.15;50.83;97878.78;5031799;28;19956;-82
2024/03/25 00:52:34;;;;;;;;;;;;;;;14.13;51.00;97886.16;5030607;28;19983;-82
2024/03/25 00:54:59;;;;;;;;;;;;;;;14.10;51.43;97879.47;5031803;28;19917;-81
2024/03/25 00:57:25;;;;;;;;;;;;;;;14.09;51.72;97875.19;5031754;28;19921;-82
2024/03/25 00:59:50;;;;;;;;;;;;;;;14.07;51.79;97865.88;5031900;28;19920;-82
2024/03/25 01:02:15;;;;;;;;;;;;;;;14.06;51.53;97854.44;5034802;28;20408;-82
2024/03/25 01:04:40;;;;;;;;;;;;;;;14.04;52.01;97851.22;5052303;28;19956;-82
2024/03/25 01:07:06;;;;;;;;;;;;;;;14.08;51.19;97859.50;5051737;28;20015;-82
2024/03/25 01:09:31;;;;;;;;;;;;;;;14.08;51.21;97852.34;5051625;28;19912;-82
2024/03/25 01:11:57;;;;;;;;;;;;;;;14.08;51.06;97848.91;5051620;28;20313;-82
2024/03/25 01:14:22;;;;;;;;;;;;;;;14.09;50.04;97838.03;5033748;28;19912;-82
2024/03/25 01:16:47;;;;;;;;;;;;;;;14.05;51.46;97830.81;5051842;28;19916;-82
2024/03/25 01:19:13;;;;;;;;;;;;;;;14.05;51.08;97825.50;5051814;28;19913;-82
2024/03/25 01:21:38;;;;;;;;;;;;;;;14.02;51.85;97825.97;5067081;28;19992;-82
2024/03/25 01:24:04;;;;;;;;;;;;;;;14.02;50.84;97834.75;5051493;28;19913;-82
2024/03/25 01:26:30;;;;;;;;;;;;;;;14.02;51.23;97826.78;5054515;28;19917;-82
2024/03/25 01:28:55;;;;;;;;;;;;;;;14.07;51.03;97818.09;5039980;28;20050;-82
2024/03/25 01:31:20;;;;;;;;;;;;;;;14.07;50.82;97816.25;5051563;28;19916;-82
2024/03/25 01:33:45;;;;;;;;;;;;;;;14.11;50.93;97817.38;5033570;28;19920;-82
2024/03/25 01:36:16;;;;;;;;;;;;;;;14.16;50.91;97816.69;5054179;28;19996;-81
2024/03/25 01:38:41;;;;;;;;;;;;;;;14.20;50.44;97831.88;5036992;28;20393;-82
2024/03/25 01:41:07;;;;;;;;;;;;;;;14.25;51.02;97828.50;5054880;28;19908;-81
2024/03/25 01:43:32;;;;;;;;;;;;;;;14.27;51.27;97832.50;5036849;28;20302;-81
2024/03/25 01:45:58;;;;;;;;;;;;;;;14.28;50.64;97825.34;5054668;28;19924;-82
2024/03/25 01:48:23;;;;;;;;;;;;;;;14.27;50.42;97810.47;5037101;28;19917;-82
2024/03/25 01:50:48;;;;;;;;;;;;;;;14.32;50.46;97786.66;5054854;28;19913;-80
2024/03/25 01:53:14;;;;;;;;;;;;;;;14.38;50.38;97792.81;5054763;28;20396;-81
2024/03/25 01:55:40;;;;;;;;;;;;;;;14.40;50.59;97810.13;5036831;28;19913;-81
2024/03/25 01:58:06;;;;;;;;;;;;;;;14.43;50.54;97788.41;5054933;28;19913;-81
2024/03/25 02:00:32;;;;;;;;;;;;;;;14.49;50.19;97786.63;5055116;28;19920;-81
2024/03/25 02:02:57;;;;;;;;;;;;;;;14.54;50.09;97778.72;5054863;28;19920;-81
2024/03/25 02:05:23;;;;;;;;;;;;;;;14.56;49.76;97797.88;5054455;28;19960;-81
2024/03/25 02:07:49;;;;;;;;;;;;;;;14.59;50.36;97808.81;5054514;28;19920;-81
2024/03/25 02:10:15;;;;;;;;;;;;;;;14.58;49.79;97823.16;5054398;28;19920;-81
2024/03/25 02:12:41;;;;;;;;;;;;;;;14.56;50.30;97841.19;5054256;28;19913;-81
2024/03/25 02:15:08;;;;;;;;;;;;;;;14.56;50.22;97835.88;5054244;28;19919;-81
2024/03/25 02:17:33;;;;;;;;;;;;;;;14.54;50.75;97845.94;5054241;28;19919;-81
2024/03/25 02:19:58;;;;;;;;;;;;;;;14.50;50.28;97857.28;5054344;28;19913;-81
2024/03/25 02:22:23;;;;;;;;;;;;;;;14.50;50.43;97862.59;5054319;28;20316;-81
2024/03/25 02:24:50;;;;;;;;;;;;;;;14.42;50.71;97910.78;5053940;28;19974;-81
2024/03/25 02:27:16;;;;;;;;;;;;;;;14.22;51.89;97925.34;5053934;28;19917;-81
2024/03/25 02:29:41;;;;;;;;;;;;;;;13.80;51.44;97937.31;5036151;28;20023;-81
2024/03/25 02:32:10;;;;;;;;;;;;;;;13.55;52.66;97935.81;5053972;28;19919;-81
2024/03/25 02:34:36;;;;;;;;;;;;;;;13.34;53.63;97921.31;5069379;28;19913;-82
2024/03/25 02:37:01;;;;;;;;;;;;;;;13.13;55.08;97924.56;5036231;28;20015;-82
2024/03/25 02:39:26;;;;;;;;;;;;;;;12.89;55.53;97957.44;5035986;28;19916;-81
2024/03/25 02:41:52;;;;;;;;;;;;;;;12.66;56.59;97982.09;5053929;28;19913;-81
2024/03/25 02:44:17;;;;;;;;;;;;;;;12.43;57.59;97977.53;5055258;28;19924;-82
2024/03/25 02:46:43;;;;;;;;;;;;;;;12.15;56.84;97969.44;5060748;28;19971;-82
2024/03/25 02:49:08;;;;;;;;;;;;;;;12.20;56.71;97972.19;5053442;28;20432;-81
2024/03/25 02:51:33;;;;;;;;;;;;;;;12.01;58.09;97974.91;5053517;28;20303;-81
2024/03/25 02:53:59;;;;;;;;;;;;;;;11.97;58.29;97986.16;5053648;28;19913;-81
2024/03/25 02:56:24;;;;;;;;;;;;;;;11.92;57.69;97992.13;5053317;28;19916;-82
2024/03/25 02:58:49;;;;;;;;;;;;;;;11.75;58.57;97977.84;5068775;28;20343;-81
2024/03/25 03:01:15;;;;;;;;;;;;;;;11.66;57.74;97993.22;5053440;28;19915;-81
2024/03/25 03:03:41;;;;;;;;;;;;;;;11.72;57.21;98007.41;5053171;28;19927;-81
2024/03/25 03:06:06;;;;;;;;;;;;;;;11.77;57.85;97999.59;5035550;28;19917;-82
2024/03/25 03:08:31;;;;;;;;;;;;;;;11.64;57.21;97995.28;5035670;28;20296;-82
2024/03/25 03:10:56;;;;;;;;;;;;;;;11.68;57.82;97993.00;5053199;28;19913;-81
2024/03/25 03:13:22;;;;;;;;;;;;;;;11.71;57.47;97997.84;5053182;28;20002;-81
2024/03/25 03:15:47;;;;;;;;;;;;;;;11.52;58.75;98010.28;5053315;28;20368;-81
2024/03/25 03:18:12;;;;;;;;;;;;;;;11.57;58.32;98009.63;5053396;28;19913;-81
2024/03/25 03:20:38;;;;;;;;;;;;;;;11.55;58.26;98014.31;5053075;28;20419;-82
2024/03/25 03:23:03;;;;;;;;;;;;;;;11.26;59.82;98021.94;5053123;28;19956;-82
2024/03/25 03:25:30;;;;;;;;;;;;;;;11.41;58.82;98032.16;5035082;28;19913;-81
2024/03/25 03:27:56;;;;;;;;;;;;;;;11.46;57.82;98030.47;5034910;28;19925;-81
2024/03/25 03:30:21;;;;;;;;;;;;;;;11.55;57.63;98049.47;5052876;28;19917;-81
2024/03/25 03:32:46;;;;;;;;;;;;;;;11.55;57.66;98056.59;5053082;28;19952;-81
2024/03/25 03:35:11;;;;;;;;;;;;;;;11.33;58.21;98064.97;5034868;28;19913;-81
2024/03/25 03:37:37;;;;;;;;;;;;;;;11.41;56.89;98075.25;5052993;28;19966;-81
2024/03/25 03:40:05;;;;;;;;;;;;;;;11.47;56.87;98094.72;5052835;28;20416;-81
2024/03/25 03:42:30;;;;;;;;;;;;;;;11.40;57.08;98097.41;5052762;28;19924;-82
2024/03/25 03:44:56;;;;;;;;;;;;;;;11.43;56.91;98104.91;5034685;28;19913;-82
2024/03/25 03:47:21;;;;;;;;;;;;;;;11.55;56.02;98101.53;5052707;28;19921;-82
2024/03/25 03:49:46;;;;;;;;;;;;;;;11.54;56.33;98121.06;5052711;28;20305;-82
2024/03/25 03:52:11;;;;;;;;;;;;;;;11.46;55.50;98101.81;5034595;28;20063;-82
2024/03/25 03:54:37;;;;;;;;;;;;;;;11.47;55.68;98102.63;5067840;28;19913;-82
2024/03/25 03:57:02;;;;;;;;;;;;;;;11.40;55.64;98088.69;5034536;28;19912;-82
2024/03/25 03:59:27;;;;;;;;;;;;;;;11.32;55.98;98096.91;5051961;28;19958;-82
2024/03/25 04:01:53;;;;;;;;;;;;;;;11.25;56.42;98109.34;5052310;28;20058;-82
2024/03/25 04:04:18;;;;;;;;;;;;;;;11.23;56.16;98108.78;5055061;28;19995;-82
2024/03/25 04:06:43;;;;;;;;;;;;;;;11.14;56.74;98101.09;5052518;28;20041;-81
2024/03/25 04:09:09;;;;;;;;;;;;;;;11.16;57.05;98108.81;5052144;28;19913;-81
2024/03/25 04:11:37;;;;;;;;;;;;;;;11.14;58.24;98109.00;5052012;28;19920;-82
2024/03/25 04:14:02;;;;;;;;;;;;;;;11.01;59.15;98097.75;5052056;28;19919;-81
2024/03/25 04:16:30;;;;;;;;;;;;;;;11.08;56.68;98111.72;5052107;28;20312;-82
2024/03/25 04:18:56;;;;;;;;;;;;;;;11.07;58.75;98116.19;5051893;28;20434;-82
2024/03/25 04:21:22;;;;;;;;;;;;;;;11.06;57.91;98109.28;5051764;28;19912;-82
2024/03/25 04:23:49;;;;;;;;;;;;;;;11.11;57.55;98119.19;5051829;28;19917;-81
2024/03/25 04:26:14;;;;;;;;;;;;;;;11.03;58.73;98119.47;5051902;28;20390;-82
2024/03/25 04:28:40;;;;;;;;;;;;;;;11.07;57.18;98128.59;5051733;28;19942;-82
2024/03/25 04:31:07;;;;;;;;;;;;;;;10.97;59.45;98150.19;5051987;28;19912;-82
2024/03/25 04:33:32;;;;;;;;;;;;;;;10.91;58.72;98140.50;5033873;28;19954;-81
2024/03/25 04:35:57;;;;;;;;;;;;;;;10.93;60.01;98153.47;5051721;28;19964;-81
2024/03/25 04:38:22;;;;;;;;;;;;;;;10.92;58.83;98167.69;5051773;28;19909;-80
2024/03/25 04:40:48;;;;;;;;;;;;;;;10.92;60.52;98163.22;5051745;28;19913;-80
2024/03/25 04:43:13;;;;;;;;;;;;;;;10.94;59.70;98166.47;5051877;28;19915;-80
2024/03/25 04:45:38;;;;;;;;;;;;;;;10.92;60.45;98160.59;5051464;28;20003;-81
2024/03/25 04:48:04;;;;;;;;;;;;;;;10.89;61.05;98170.78;5033603;28;20290;-81
2024/03/25 04:50:30;;;;;;;;;;;;;;;10.83;60.38;98183.81;5033561;28;19913;-82
2024/03/25 04:52:55;;;;;;;;;;;;;;;10.77;60.78;98181.19;5033569;28;20328;-83
2024/03/25 04:55:20;;;;;;;;;;;;;;;10.73;59.14;98172.09;5033448;28;19913;-84
2024/03/25 04:57:46;;;;;;;;;;;;;;;10.79;59.95;98179.16;5051527;28;19909;-83
2024/03/25 05:00:11;;;;;;;;;;;;;;;10.66;61.26;98174.78;5051662;28;19970;-82
2024/03/25 05:02:37;;;;;;;;;;;;;;;10.68;60.23;98171.91;5051429;28;19921;-83
2024/03/25 05:05:03;;;;;;;;;;;;;;;10.72;59.86;98183.66;5051561;28;19913;-83
2024/03/25 05:07:28;;;;;;;;;;;;;;;10.68;59.70;98191.19;5051623;28;20008;-83
2024/03/25 05:09:53;;;;;;;;;;;;;;;10.65;60.32;98186.34;5034380;28;19920;-83
2024/03/25 05:12:18;;;;;;;;;;;;;;;10.57;60.44;98194.50;5037646;28;19912;-83
2024/03/25 05:14:44;;;;;;;;;;;;;;;10.58;60.27;98182.94;5037658;28;19974;-83
2024/03/25 05:17:09;;;;;;;;;;;;;;;10.62;59.59;98180.69;5055794;28;19913;-83
2024/03/25 05:19:34;;;;;;;;;;;;;;;10.65;59.25;98169.69;5055126;28;19920;-84
2024/03/25 05:21:59;;;;;;;;;;;;;;;10.65;59.96;98169.69;5057562;28;19913;-85
2024/03/25 05:24:28;;;;;;;;;;;;;;;10.58;58.64;98174.22;5061548;28;19913;-85
2024/03/25 05:26:53;;;;;;;;;;;;;;;10.65;59.65;98172.34;5055280;28;19923;-85
2024/03/25 05:29:18;;;;;;;;;;;;;;;10.57;60.33;98165.47;5055101;28;19913;-85
2024/03/25 05:31:55;;;;;;;;;;;;;;;10.56;59.36;98176.25;5054758;28;20019;-83
2024/03/25 05:34:21;;;;;;;;;;;;;;;10.61;58.53;98161.41;5037032;28;19948;-84
2024/03/25 05:36:46;;;;;;;;;;;;;;;10.67;58.49;98160.56;5055100;28;19940;-84
2024/03/25 05:39:11;;;;;;;;;;;;;;;10.66;57.13;98172.13;5055078;28;20304;-84
2024/03/25 05:41:36;;;;;;;;;;;;;;;10.68;56.92;98153.44;5055012;28;19913;-84
2024/03/25 05:44:02;;;;;;;;;;;;;;;10.57;56.13;98148.84;5036881;28;19920;-84
2024/03/25 05:46:27;;;;;;;;;;;;;;;10.62;56.04;98149.81;5054688;28;20381;-84
2024/03/25 05:48:52;;;;;;;;;;;;;;;10.61;55.16;98161.41;5054563;28;19913;-85
2024/03/25 05:51:19;;;;;;;;;;;;;;;10.65;55.63;98145.94;5054585;28;19939;-84
2024/03/25 05:53:44;;;;;;;;;;;;;;;10.64;55.13;98154.88;5054575;28;20381;-84
2024/03/25 05:56:10;;;;;;;;;;;;;;;10.60;54.43;98154.50;5054520;28;19913;-84
2024/03/25 05:58:35;;;;;;;;;;;;;;;10.69;54.69;98162.97;5036722;28;20284;-84
2024/03/25 06:01:01;;;;;;;;;;;;;;;10.80;54.45;98149.09;5054222;28;19913;-84
2024/03/25 06:03:26;;;;;;;;;;;;;;;10.73;54.57;98148.31;5036319;28;19990;-83
2024/03/25 06:05:51;;;;;;;;;;;;;;;10.77;54.13;98162.72;5054200;28;19917;-84
2024/03/25 06:08:26;;;;;;;;;;;;;;;10.74;53.68;98165.78;5054166;28;19966;-84
2024/03/25 06:10:51;;;;;;;;;;;;;;;10.75;53.63;98189.34;5054349;28;19955;-84
2024/03/25 06:13:17;;;;;;;;;;;;;;;10.69;53.74;98163.78;5038273;28;19948;-83
2024/03/25 06:15:42;;;;;;;;;;;;;;;10.78;53.48;98175.72;5064134;28;20316;-83
2024/03/25 06:18:07;;;;;;;;;;;;;;;10.75;53.64;98170.03;5072862;28;20374;-84
2024/03/25 06:20:32;;;;;;;;;;;;;;;10.78;53.10;98183.63;5073443;28;20025;-84
2024/03/25 06:22:58;;;;;;;;;;;;;;;10.85;53.01;98194.16;5072721;28;19922;-84
2024/03/25 06:25:23;;;;;;;;;;;;;;;10.92;53.19;98187.00;5072708;28;20308;-84
2024/03/25 06:27:48;;;;;;;;;;;;;;;10.91;53.06;98177.44;5073516;28;20027;-84
2024/03/25 06:35:44;;;;;;;;;;;;;;;10.89;52.49;98195.34;5061792;28;19970;-84
2024/03/25 06:38:10;;;;;;;;;;;;;;;10.92;52.81;98207.31;5073603;28;19948;-84
2024/03/25 06:40:35;;;;;;;;;;;;;;;10.96;52.13;98227.00;5073649;28;20381;-84
2024/03/25 06:43:01;;;;;;;;;;;;;;;10.83;52.35;98212.03;5073428;28;20416;-83
2024/03/25 06:45:26;;;;;;;;;;;;;;;10.75;52.27;98218.38;5073463;28;19966;-83
2024/03/25 06:47:51;;;;;;;;;;;;;;;10.85;52.09;98233.75;5072213;28;19970;-83
2024/03/25 06:50:16;;;;;;;;;;;;;;;10.79;52.66;98224.84;5073261;28;19919;-83
2024/03/25 06:52:42;;;;;;;;;;;;;;;10.79;52.93;98218.75;5073287;28;19912;-83
2024/03/25 06:55:08;;;;;;;;;;;;;;;10.85;52.23;98225.03;5073192;28;20347;-83
2024/03/25 06:57:33;;;;;;;;;;;;;;;10.89;52.16;98227.03;5055309;28;19912;-83
2024/03/25 06:59:58;;;;;;;;;;;;;;;10.98;52.21;98235.50;5073447;28;19912;-83
2024/03/25 07:02:24;;;;;;;;;;;;;;;11.04;51.93;98251.31;5072994;28;20316;-83
2024/03/25 07:04:49;;;;;;;;;;;;;;;11.03;52.60;98236.50;5073026;28;19912;-82
2024/03/25 07:07:14;;;;;;;;;;;;;;;11.15;51.72;98231.38;5073072;28;19916;-83
2024/03/25 07:09:40;;;;;;;;;;;;;;;11.25;51.50;98242.28;5055005;28;19913;-83
2024/03/25 07:12:06;;;;;;;;;;;;;;;11.26;50.88;98241.25;5072712;28;20007;-83
2024/03/25 07:14:31;;;;;;;;;;;;;;;11.26;50.88;98258.94;5072467;28;19916;-83
2024/03/25 07:16:56;;;;;;;;;;;;;;;11.18;49.83;98238.88;5072597;28;20300;-83
2024/03/25 07:19:21;;;;;;;;;;;;;;;11.34;49.90;98248.91;5066261;28;19916;-83
2024/03/25 07:21:47;;;;;;;;;;;;;;;11.32;50.04;98252.78;5072486;28;19920;-83
2024/03/25 07:24:12;;;;;;;;;;;;;;;11.21;49.39;98256.94;5072460;28;20306;-83
2024/03/25 07:26:37;;;;;;;;;;;;;;;11.06;49.81;98251.09;5054610;28;19999;-82
2024/03/25 07:29:02;;;;;;;;;;;;;;;11.22;49.95;98263.84;5054561;28;19913;-83
2024/03/25 07:31:28;;;;;;;;;;;;;;;11.16;49.58;98272.59;5072225;28;20350;-83
2024/03/25 07:33:53;;;;;;;;;;;;;;;10.95;49.49;98299.31;5071999;28;19920;-84
2024/03/25 07:36:19;;;;;;;;;;;;;;;11.08;49.39;98273.63;5072429;28;20422;-83
2024/03/25 07:38:44;;;;;;;;;;;;;;;11.15;49.44;98300.03;5072301;28;19924;-83
2024/03/25 07:41:09;;;;;;;;;;;;;;;11.04;49.12;98276.91;5072399;28;19917;-84
2024/03/25 07:43:34;;;;;;;;;;;;;;;11.05;49.68;98286.47;5054298;28;20007;-84
2024/03/25 07:46:00;;;;;;;;;;;;;;;10.99;49.38;98296.03;5072227;28;20400;-83
2024/03/25 07:48:25;;;;;;;;;;;;;;;11.16;49.57;98293.75;5071871;28;20003;-83
2024/03/25 07:50:51;;;;;;;;;;;;;;;11.03;49.33;98299.88;5072252;28;20373;-84
2024/03/25 07:53:16;;;;;;;;;;;;;;;11.01;49.95;98304.56;5067481;28;19924;-84
2024/03/25 07:55:41;;;;;;;;;;;;;;;11.04;49.71;98327.91;5067584;28;19923;-84
2024/03/25 07:58:06;;;;;;;;;;;;;;;11.24;49.62;98311.19;5070558;28;19947;-83
2024/03/25 08:00:31;;;;;;;;;;;;;;;11.44;50.05;98307.38;5070788;28;20313;-83
2024/03/25 08:02:57;;;;;;;;;;;;;;;11.53;49.40;98328.28;5072003;28;19920;-82
2024/03/25 08:05:22;;;;;;;;;;;;;;;11.64;48.40;98360.13;5063153;28;19922;-83
2024/03/25 08:07:47;;;;;;;;;;;;;;;11.55;48.36;98350.00;5053753;28;19936;-84
2024/03/25 08:10:13;;;;;;;;;;;;;;;11.69;48.41;98359.47;5053930;28;20385;-83
2024/03/25 08:12:38;;;;;;;;;;;;;;;11.67;48.48;98350.94;5071314;28;20366;-84
2024/03/25 08:15:04;;;;;;;;;;;;;;;11.69;48.30;98348.91;5070250;28;19986;-83
2024/03/25 08:17:29;;;;;;;;;;;;;;;11.62;47.76;98348.13;5071364;28;19916;-83
2024/03/25 08:19:54;;;;;;;;;;;;;;;11.64;48.31;98348.72;5071459;28;19924;-83
2024/03/25 08:22:20;;;;;;;;;;;;;;;11.56;48.12;98355.09;5071640;28;20420;-82
2024/03/25 08:24:45;;;;;;;;;;;;;;;11.46;48.64;98333.59;5053664;28;19912;-84
2024/03/25 08:27:10;;;;;;;;;;;;;;;11.48;48.16;98341.31;5071429;28;19916;-84
2024/03/25 08:29:35;;;;;;;;;;;;;;;11.55;49.02;98340.25;5071635;28;19912;-84
2024/03/25 08:32:01;;;;;;;;;;;;;;;11.84;47.36;98353.91;5071283;28;19917;-83
2024/03/25 08:34:26;;;;;;;;;;;;;;;11.97;47.38;98349.34;5071524;28;20308;-83
2024/03/25 08:36:51;;;;;;;;;;;;;;;12.12;47.55;98343.72;5071661;28;19919;-83
2024/03/25 08:39:16;;;;;;;;;;;;;;;12.27;46.72;98338.09;5071697;28;19908;-83
2024/03/25 08:41:42;;;;;;;;;;;;;;;12.15;47.18;98342.50;5071438;28;19973;-83
2024/03/25 08:44:07;;;;;;;;;;;;;;;12.23;46.57;98360.72;5071527;28;19982;-84
2024/03/25 08:46:32;;;;;;;;;;;;;;;12.22;46.02;98356.47;5075062;28;19920;-84
2024/03/25 08:48:58;;;;;;;;;;;;;;;12.51;45.93;98357.63;5075089;28;19912;-82
2024/03/25 08:51:23;;;;;;;;;;;;;;;12.73;44.93;98359.66;5082909;28;20003;-83
2024/03/25 08:53:50;;;;;;;;;;;;;;;12.80;44.94;98364.88;5075004;28;19924;-82
2024/03/25 08:56:15;;;;;;;;;;;;;;;12.64;43.72;98378.69;5072295;28;20400;-80
2024/03/25 08:58:40;;;;;;;;;;;;;;;12.63;43.24;98355.84;5074886;28;19966;-83
2024/03/25 09:01:05;;;;;;;;;;;;;;;12.63;43.57;98379.69;5074866;28;19937;-82
2024/03/25 09:03:31;;;;;;;;;;;;;;;12.68;44.09;98372.75;5061396;28;20390;-82
2024/03/25 09:05:56;;;;;;;;;;;;;;;12.71;44.14;98364.34;5075186;28;19920;-82
2024/03/25 09:08:22;;;;;;;;;;;;;;;12.78;43.74;98390.75;5075173;28;19912;-82
2024/03/25 09:11:02;;;;;;;;;;;;;;;12.85;43.93;98372.97;5074940;28;20301;-82
2024/03/25 09:13:28;;;;;;;;;;;;;;;12.96;43.41;98384.66;5074995;28;19969;-82
2024/03/25 09:15:53;;;;;;;;;;;;;;;13.05;42.92;98383.31;5059614;28;19916;-82
2024/03/25 09:18:19;;;;;;;;;;;;;;;13.04;42.34;98408.19;5075060;28;19912;-82
2024/03/25 09:20:44;;;;;;;;;;;;;;;13.11;41.27;98392.22;5056634;28;19916;-82
2024/03/25 09:23:09;;;;;;;;;;;;;;;13.17;40.86;98375.47;5074761;28;19948;-82
2024/03/25 09:25:34;;;;;;;;;;;;;;;13.17;40.93;98412.56;5074570;28;20401;-83
2024/03/25 09:28:00;;;;;;;;;;;;;;;13.21;40.94;98392.53;5074665;28;19962;-82
2024/03/25 09:30:26;;;;;;;;;;;;;;;13.19;41.15;98373.41;5074536;28;19913;-82
2024/03/25 09:32:51;;;;;;;;;;;;;;;13.30;41.25;98383.25;5074471;28;19919;-82
2024/03/25 09:35:16;;;;;;;;;;;;;;;13.36;40.81;98383.16;5075384;28;20416;-82
2024/03/25 09:37:42;;;;;;;;;;;;;;;13.65;41.11;98386.06;5059409;28;19924;-82
2024/03/25 09:40:07;;;;;;;;;;;;;;;13.99;39.61;98368.59;5074161;28;19924;-82
2024/03/25 09:42:46;;;;;;;;;;;;;;;14.39;38.82;98400.66;5073331;28;20455;-82
2024/03/25 09:45:13;;;;;;;;;;;;;;;14.66;38.25;98397.56;5070808;28;19916;-81
2024/03/25 09:47:39;;;;;;;;;;;;;;;14.98;37.12;98371.41;5072276;28;19928;-81
2024/03/25 09:50:05;;;;;;;;;;;;;;;15.41;36.53;98371.75;5074846;28;19916;-82
2024/03/25 09:52:31;;;;;;;;;;;;;;;15.76;36.28;98408.91;5075274;28;19981;-80
2024/03/25 09:54:56;;;;;;;;;;;;;;;16.01;34.61;98381.91;5072347;28;19933;-80
2024/03/25 09:57:21;;;;;;;;;;;;;;;16.13;35.05;98395.13;5073841;28;19912;-81
2024/03/25 09:59:47;;;;;;;;;;;;;;;16.08;35.94;98405.69;5057800;28;19920;-81
2024/03/25 10:02:12;;;;;;;;;;;;;;;15.78;36.70;98416.63;5048226;28;19935;-81
2024/03/25 10:04:44;;;;;;;;;;;;;;;15.50;37.56;98409.41;5072757;28;20458;-81
2024/03/25 10:07:10;;;;;;;;;;;;;;;15.00;36.90;98420.66;5055856;28;19947;-81
2024/03/25 10:09:35;;;;;;;;;;;;;;;14.61;36.61;98415.00;5042550;28;19966;-82
2024/03/25 10:12:00;;;;;;;;;;;;;;;14.51;37.50;98422.75;5054153;28;19913;-82
2024/03/25 10:14:26;;;;;;;;;;;;;;;14.36;36.99;98408.25;5053414;28;19948;-82
2024/03/25 10:16:51;;;;;;;;;;;;;;;14.20;37.76;98423.84;5053839;28;19917;-82
2024/03/25 10:19:16;;;;;;;;;;;;;;;14.18;37.83;98403.84;5032647;28;19921;-82
2024/03/25 10:21:41;;;;;;;;;;;;;;;14.27;37.18;98397.19;5051660;28;19917;-80
2024/03/25 10:24:07;;;;;;;;;;;;;;;14.78;36.42;98393.84;5051493;28;19917;-81
2024/03/25 10:26:35;;;;;;;;;;;;;;;15.36;35.16;98384.94;5052544;28;19951;-80
2024/03/25 10:29:07;;;;;;;;;;;;;;;15.32;33.74;98372.34;5052375;28;19971;-81
2024/03/25 10:31:32;;;;;;;;;;;;;;;15.35;34.17;98386.00;5036568;28;20288;-80
2024/03/25 10:33:58;;;;;;;;;;;;;;;15.40;33.69;98359.50;5050574;28;19916;-80
2024/03/25 10:36:24;;;;;;;;;;;;;;;15.75;33.32;98379.84;5035738;28;19921;-79
2024/03/25 10:38:53;;;;;;;;;;;;;;;16.03;32.93;98371.81;5053517;28;19912;-80
2024/03/25 10:41:20;;;;;;;;;;;;;;;16.50;33.07;98369.63;5035624;28;20392;-80
2024/03/25 10:43:46;;;;;;;;;;;;;;;16.89;33.00;98366.97;5035637;28;20408;-79
2024/03/25 10:46:14;;;;;;;;;;;;;;;16.84;32.65;98366.91;5047704;28;20337;-80
2024/03/25 10:48:40;;;;;;;;;;;;;;;17.00;31.52;98370.59;5016008;28;19913;-79
2024/03/25 10:51:10;;;;;;;;;;;;;;;16.99;31.71;98379.63;5049674;28;19982;-80
2024/03/25 10:53:36;;;;;;;;;;;;;;;16.89;31.31;98393.66;5052530;28;19919;-81
2024/03/25 10:56:04;;;;;;;;;;;;;;;17.17;30.72;98386.56;5054713;28;19974;-80
2024/03/25 10:58:30;;;;;;;;;;;;;;;17.15;30.62;98384.13;5062294;28;19917;-79
2024/03/25 11:00:56;;;;;;;;;;;;;;;16.91;30.04;98402.19;5052920;28;19956;-79
2024/03/25 11:03:23;;;;;;;;;;;;;;;17.25;30.34;98412.78;5033857;28;19928;-79
2024/03/25 11:05:48;;;;;;;;;;;;;;;16.94;30.32;98387.56;5049064;28;19925;-79
2024/03/25 11:08:14;;;;;;;;;;;;;;;17.17;30.81;98403.38;5030159;28;19924;-80
2024/03/25 11:10:40;;;;;;;;;;;;;;;17.51;29.77;98401.34;5048215;28;19981;-80
2024/03/25 11:13:09;;;;;;;;;;;;;;;17.29;29.71;98409.38;5054725;28;19916;-79
2024/03/25 11:15:43;;;;;;;;;;;;;;;17.25;30.17;98412.78;5048916;28;19927;-80
2024/03/25 11:18:11;;;;;;;;;;;;;;;17.51;29.06;98397.88;5046007;28;19916;-79
2024/03/25 11:20:36;;;;;;;;;;;;;;;18.00;28.71;98407.50;5039064;28;20305;-79
2024/03/25 11:23:07;;;;;;;;;;;;;;;18.18;28.65;98405.50;5054898;28;19928;-78
2024/03/25 11:25:33;;;;;;;;;;;;;;;17.75;28.02;98400.03;5072519;28;19917;-80
2024/03/25 11:27:58;;;;;;;;;;;;;;;17.59;28.13;98403.56;5063576;28;19921;-80
2024/03/25 11:30:26;;;;;;;;;;;;;;;17.57;27.95;98397.66;5055447;28;19923;-80
2024/03/25 11:32:52;;;;;;;;;;;;;;;17.43;27.77;98426.63;5058006;28;19916;-80
2024/03/25 11:35:17;;;;;;;;;;;;;;;18.01;27.14;98427.81;5063242;28;20372;-80
2024/03/25 11:37:43;;;;;;;;;;;;;;;18.31;27.33;98418.44;5032994;28;19917;-79
2024/03/25 11:40:11;;;;;;;;;;;;;;;18.12;27.95;98411.88;5062515;28;19952;-79
2024/03/25 11:42:38;;;;;;;;;;;;;;;17.93;28.28;98435.47;5064114;28;19916;-80
2024/03/25 11:45:03;;;;;;;;;;;;;;;17.38;27.87;98433.75;5035231;28;19966;-80
2024/03/25 11:47:29;;;;;;;;;;;;;;;17.59;28.74;98424.91;5056323;28;19956;-79
2024/03/25 11:49:54;;;;;;;;;;;;;;;18.05;27.62;98425.44;5052082;28;19913;-80
2024/03/25 11:52:19;;;;;;;;;;;;;;;18.33;28.07;98435.81;5036207;28;19917;-81
2024/03/25 11:54:45;;;;;;;;;;;;;;;18.17;27.38;98435.94;5032251;28;19912;-79
2024/03/25 11:57:10;;;;;;;;;;;;;;;18.04;27.29;98424.63;5038670;28;20376;-81
2024/03/25 11:59:35;;;;;;;;;;;;;;;17.82;27.41;98433.72;5052479;28;19913;-81
2024/03/25 12:02:01;;;;;;;;;;;;;;;17.81;26.60;98445.47;5052995;28;19971;-80
2024/03/25 12:04:27;;;;;;;;;;;;;;;17.75;26.76;98420.56;5022657;28;19924;-80
2024/03/25 12:06:54;;;;;;;;;;;;;;;17.99;27.51;98424.56;5032837;28;19929;-80
2024/03/25 12:12:04;;;;;;;;;;;;;;;17.44;28.26;98448.78;5051413;28;19923;-81
2024/03/25 12:14:29;;;;;;;;;;;;;;;17.04;28.50;98433.84;5051617;28;19917;-78
2024/03/25 12:16:55;;;;;;;;;;;;;;;16.84;28.04;98454.91;5051347;28;20050;-80
2024/03/25 12:19:20;;;;;;;;;;;;;;;16.56;27.33;98445.13;5045978;28;19913;-80
2024/03/25 12:21:47;;;;;;;;;;;;;;;16.77;28.15;98433.75;5051928;28;19955;-80
2024/03/25 12:24:13;;;;;;;;;;;;;;;16.65;27.89;98426.88;5050802;28;20308;-80
2024/03/25 12:26:38;;;;;;;;;;;;;;;16.59;27.74;98428.66;5038816;28;20019;-80
2024/03/25 12:29:04;;;;;;;;;;;;;;;16.34;28.27;98438.88;5025912;28;19916;-81
2024/03/25 12:31:29;;;;;;;;;;;;;;;16.25;28.92;98433.16;5052631;28;20027;-80
2024/03/25 12:33:55;;;;;;;;;;;;;;;16.17;27.98;98438.88;5064822;28;19948;-80
2024/03/25 12:36:21;;;;;;;;;;;;;;;15.99;27.83;98452.41;5058008;28;19916;-81
2024/03/25 12:38:53;;;;;;;;;;;;;;;15.79;28.17;98435.03;5070221;28;19916;-80
2024/03/25 12:41:21;;;;;;;;;;;;;;;15.92;27.50;98441.91;5031482;28;19978;-80
2024/03/25 12:43:47;;;;;;;;;;;;;;;16.10;27.10;98435.56;5031896;28;19956;-80
2024/03/25 12:46:12;;;;;;;;;;;;;;;16.27;27.24;98448.88;5063126;28;19959;-80
2024/03/25 12:48:37;;;;;;;;;;;;;;;16.51;26.12;98437.84;5041467;28;19916;-80